Vers la page d'accueil de NAV CANADA Ouverture d'une nouvelle session Chercher sur le site AWWS Clause de non-reponsabilité To the equivalent English page Trucs et astuces FAQ Quoi de neuf sur le site Vers la section Prévisions et observations / NOTAM Vers le site web pour <<Déposer un plan de vol>> Publications et liens importants Mise à jour du profil d'usager Numéros de téléphone des FIC Mes données météo personnelles Données météo de route Données météo régionales Données météo locales Vers la section Prévisions et observations / NOTAM
Requête générée le 2019/02/18 à 15:13:41 UTC. L'information météorologique disponible à ce moment est affichée.

METAR/TAF

Si vous notez des différences entre le METAR/TAF codé et le METAR/TAF en langage clair, veuillez utiliser la version codée. Les bulletins LWIS ne sont pas décodés en langage clair.

MONTREAL INTL (MIRABEL)/QC    

METAR CYMX 181500Z 03006KT 340V100 45SM BKN070 OVC140 M12/M18 A3001 RMK AC6AC2 P173=
METAR
LIEU
CYMX - MONTREAL INTL (MIRABEL)/QC
DATE - HEURE
18 FEVRIER 2019 - 1500 UTC
VENT
30 VRAIS @ 6  NOEUDS
VARIATION
340 <-> 100  DEG
VISIBILITE
45 MILLES TERR.
PORTEE VISUELLE DE PISTE
METEO
NEBULOSITE
NUAGES FRAGMENTES (5/8 - 7/8) 7000  PI
CIEL COUVERT 14000  PI
TEMP / PT DE ROSEE
-12 C / -18 C
ALTIMETRE
30.01 PO HG
TEMPS RECENT
CISAILLEMENT

METAR CYMX 181400Z 05008G15KT 010V080 45SM BKN090 BKN150 M13/M19 A3001 RMK AC5A SLP173=
METAR
LIEU
CYMX - MONTREAL INTL (MIRABEL)/QC
DATE - HEURE
18 FEVRIER 2019 - 1400 UTC
VENT
50 VRAIS @ 8  NOEUDS
VARIATION
10 <-> 80  DEG
RAFALES
15 NOEUDS
VISIBILITE
45 MILLES TERR.
PORTEE VISUELLE DE PISTE
METEO
NEBULOSITE
NUAGES FRAGMENTES (5/8 - 7/8) 9000  PI
NUAGES FRAGMENTES (5/8 - 7/8) 15000  PI
TEMP / PT DE ROSEE
-13 C / -19 C
ALTIMETRE
30.01 PO HG
TEMPS RECENT
CISAILLEMENT

METAR CYMX 181300Z 05008G15KT 010V080 45SM SCT098 BKN110 M13/M18 A3001 RMK AC3A SLP172=
METAR
LIEU
CYMX - MONTREAL INTL (MIRABEL)/QC
DATE - HEURE
18 FEVRIER 2019 - 1300 UTC
VENT
50 VRAIS @ 8  NOEUDS
VARIATION
10 <-> 80  DEG
RAFALES
15 NOEUDS
VISIBILITE
45 MILLES TERR.
PORTEE VISUELLE DE PISTE
METEO
NEBULOSITE
NUAGES EPARS (3/8 - 4/8) 9800  PI
NUAGES FRAGMENTES (5/8 - 7/8) 11000  PI
TEMP / PT DE ROSEE
-13 C / -18 C
ALTIMETRE
30.01 PO HG
TEMPS RECENT
CISAILLEMENT

TAF CYMX 181139Z 1812/1912 05005KT P6SM FEW030 BKN120 TEMPO 1812/1815 P6SM -SHSN FM181800 36005KT P6SM BKN120 BECMG 1819/1821 28006KT FM182300 29007KT P6SM FEW030 RMK NXT FCST BY 181800Z=
TAF
LIEU

CYMX - MONTREAL INTL (MIRABEL)/QC
VALIDITE [UTC]
18 FEB - 1139 à
19 FEB - 1200
 
PERIODES
[UTC]
VENT
[DEGRES VRAIS]
VISIBILITE
[MILLES TERR.]
METEO
NEBULOSITE
[PIEDS AGL]
 
18 FEB - 1200 à
18 FEB - 1800
50 @ 5 NOEUDS
6+
---
3000 QUELQUES
12000 FRAGMENTES
CHANGEMENTS TEMPORAIRES
18 FEB - 1200 à
18 FEB - 1500
 
6+
AVERSE DE NEIGE FAIBLE
 
 
18 FEB - 1800 à
18 FEB - 2300
360 @ 5 NOEUDS
6+
---
12000 FRAGMENTES
CHANGEMENTS GRADUELS
18 FEB - 1900 à
18 FEB - 2100
280 @ 6 NOEUDS
 
 
 
 
18 FEB - 2300 à
19 FEB - 1200
290 @ 7 NOEUDS
6+
---
3000 QUELQUES
REMARQUES
LA PREVISION SUIVANTE SERA EMISE POUR 1800 UTC LE 18


Votre heure Heure UTC
Données météorologiques fournies par Environnement Canada et NAV CANADA